Etusivu
METAR-TAF:

METAR-TAF

Lentoasemat :

Piacenza, Italia

Leveyspiiri: 44-55N, Pituuspiiri: 009-44E, korkeus merenpinnasta: 134 m

Tämänhetkinen sää

Tämä raportti tehtiin 3 tuntia ja 49 minuuttia sitten, kello 17.55 UTC
Tuuli 9 kn lännestä
Lämpötila 25°C
Kosteus 69%
Ilmanpaine 1008 hPa
Näkyvyys 10 km tai enemmän
Hajanaisia pilviä 3000 ft:n korkeudessa, Kasvava cumulus-pilvi.

METAR: LIMS 221755Z 27009KT 9999 SCT030TCU 25/19 Q1008 RMK BKN SCT100 VIS MIN 9999 WIND THR30 27003KT BLU

Aika: 23:44 (21:44 UTC)


TAF: puuttuu

Säähavainnot ja -ennusteet yli 4000 lentoasemalta (METAR- ja TAF-raportit).

Käytössä olevat sääasemat on merkitty karttaan keltaisilla ja punaisilla pisteillä.

Aseta hiiri pisteen päälle nähdäksesi sääaseman nimen.

Klikkaa sitten nähdäksesi säähavainnot ja -ennusteet.

Kartan vaihtaminen: klikkaa mustalla rastilla varustettuja vihreitä pisteitä, niin voit zoomata sisään; viivalla varustettua vihreää pistettä, niin voit zoomata ulos tai vihreitä nuolia, niin pääset viereisille kartoille.


METAR-TAF: